createdAt,value
2023-04-03T04:34:19.746Z,139595.69
2023-04-03T04:39:24.354Z,139610.41
2023-04-03T04:44:28.180Z,139603.03
2023-04-03T04:49:33.191Z,139634.88
2023-04-03T04:54:37.496Z,139638.53
2023-04-03T04:59:40.906Z,139731.47
2023-04-03T05:04:46.310Z,139945.75
2023-04-03T05:09:56.263Z,140124.69
2023-04-03T05:15:00.604Z,140259.56
2023-04-03T05:20:08.514Z,140530.78
2023-04-03T05:25:12.300Z,140599.53
2023-04-03T05:30:19.477Z,140675.72
2023-04-03T05:35:27.295Z,140753.19
2023-04-03T05:40:34.594Z,140801.03
2023-04-03T05:45:38.373Z,141065.53
2023-04-03T05:50:43.453Z,140935.09
2023-04-03T05:55:51.345Z,140920.34
2023-04-03T06:06:44.306Z,141043.38
2023-04-03T06:11:48.081Z,141099.97
2023-04-03T06:16:52.670Z,141200.91
2023-04-03T06:21:58.229Z,141117.25
2023-04-03T06:27:01.749Z,141157.78
2023-04-03T06:32:05.159Z,141161.47
2023-04-03T06:37:17.290Z,141139.31
2023-04-03T06:42:20.660Z,141114.78
2023-04-03T06:47:31.298Z,141157.78
2023-04-03T06:52:37.654Z,141157.78
2023-04-03T06:57:43.155Z,141063.06
2023-04-03T07:02:46.621Z,141087.69
2023-04-03T07:07:52.304Z,141092.63
2023-04-03T07:12:55.846Z,140786.31
2023-04-03T07:17:59.396Z,140724.91
2023-04-03T07:23:04.384Z,140722.44
2023-04-03T07:28:09.174Z,140791.22
2023-04-03T07:33:12.707Z,140847.78
2023-04-03T07:38:19.226Z,140932.63
2023-04-03T07:43:23.147Z,140948.66
2023-04-03T07:48:27.520Z,140970.75
2023-04-03T07:53:32.540Z,140990.44
2023-04-03T07:58:39.479Z,140894.53
2023-04-03T08:03:43.000Z,140821.94
2023-04-03T08:08:48.136Z,140814.59
2023-04-03T08:13:53.624Z,140774.03
2023-04-03T08:18:57.395Z,140769.13
2023-04-03T08:24:05.361Z,140788.75
2023-04-03T08:29:11.604Z,140779.00
2023-04-03T08:34:15.695Z,140710.13
2023-04-03T08:39:20.736Z,140781.41
2023-04-03T08:44:27.266Z,140820.72
2023-04-03T08:49:33.494Z,140850.22
2023-04-03T08:54:43.264Z,140835.50
2023-04-03T08:59:46.993Z,140844.09
2023-04-03T09:04:52.462Z,140888.34
2023-04-03T09:10:02.189Z,141022.44
2023-04-03T09:15:13.149Z,141178.75
2023-04-03T09:20:21.461Z,141116.00
2023-04-03T09:25:27.712Z,141134.41
2023-04-03T09:30:31.362Z,141152.88
2023-04-03T09:35:48.105Z,141244.00
2023-04-03T09:41:04.743Z,141327.75
2023-04-03T09:46:27.394Z,141234.16
2023-04-03T09:51:32.149Z,141228.00
2023-04-03T09:56:37.729Z,141239.06
2023-04-03T10:01:44.010Z,141199.69
2023-04-03T10:06:48.629Z,141183.66
2023-04-03T10:12:06.707Z,141195.94
2023-04-03T10:17:20.894Z,141175.06
2023-04-03T10:22:30.432Z,141236.63
2023-04-03T10:27:39.761Z,141221.81
2023-04-03T10:32:57.039Z,141207.06
2023-04-03T10:38:05.128Z,141313.00
2023-04-03T10:43:12.212Z,141280.94
2023-04-03T10:48:19.986Z,141351.16
2023-04-03T10:53:28.091Z,141305.56
2023-04-03T10:58:34.679Z,141240.31
2023-04-03T11:03:41.777Z,141216.91
2023-04-03T11:08:47.873Z,141246.44
2023-04-03T11:13:55.522Z,141293.28
2023-04-03T11:19:01.797Z,141274.78
2023-04-03T11:24:08.684Z,141236.63
2023-04-03T11:29:28.181Z,141188.56
2023-04-03T11:34:41.268Z,141187.34
2023-04-03T11:39:55.805Z,141187.34
2023-04-03T11:45:26.127Z,141186.13
2023-04-03T11:50:33.536Z,141125.78
2023-04-03T11:55:51.764Z,141119.66
2023-04-03T12:00:58.048Z,141127.03
2023-04-03T12:06:23.371Z,141112.28
2023-04-03T12:11:30.822Z,141124.56
2023-04-03T12:16:45.032Z,141138.09
2023-04-03T12:22:08.912Z,141124.56
2023-04-03T12:27:34.067Z,141143.03
2023-04-03T12:32:52.026Z,141221.81
2023-04-03T12:38:16.394Z,141264.94
2023-04-03T12:43:28.637Z,141225.53
2023-04-03T12:48:35.910Z,141225.53
2023-04-03T12:53:40.532Z,141162.72
2023-04-03T12:58:44.115Z,141168.84
2023-04-03T13:03:50.214Z,141177.50
2023-04-03T13:08:54.608Z,141156.56
2023-04-03T13:14:01.777Z,141232.91
2023-04-03T13:19:06.518Z,141304.34
2023-04-03T13:24:15.401Z,141257.56
2023-04-03T13:29:30.947Z,141289.56
2023-04-03T13:34:39.909Z,141229.22
2023-04-03T13:39:43.484Z,141152.88
2023-04-03T13:44:48.874Z,141163.94
2023-04-03T13:50:04.499Z,141160.25
2023-04-03T13:55:24.663Z,141224.28
2023-04-03T14:00:32.480Z,141140.53
2023-04-03T14:05:37.436Z,141216.91
2023-04-03T14:10:41.123Z,141184.88
2023-04-03T14:15:45.103Z,141218.13
2023-04-03T14:20:50.496Z,141234.16
2023-04-03T14:25:54.333Z,141079.06
2023-04-03T14:30:57.755Z,141207.06
2023-04-03T14:36:03.262Z,141145.50
2023-04-03T14:41:16.153Z,141102.44
2023-04-03T14:46:43.107Z,141106.13
2023-04-03T14:51:56.829Z,141076.59
2023-04-03T14:57:01.385Z,141050.75
2023-04-03T15:02:08.141Z,141128.25
2023-04-03T15:07:13.089Z,141045.81
2023-04-03T15:12:16.546Z,141017.53
2023-04-03T15:17:22.064Z,141005.25
2023-04-03T15:22:29.096Z,141001.56
2023-04-03T15:27:32.737Z,141011.38
2023-04-03T15:32:36.635Z,141051.97
2023-04-03T15:37:42.676Z,141049.50
2023-04-03T15:42:48.085Z,140992.91
2023-04-03T15:47:51.781Z,140963.38
2023-04-03T15:53:00.059Z,140937.53
2023-04-03T15:58:06.452Z,140930.19
2023-04-03T16:03:11.655Z,141005.25
2023-04-03T16:08:17.351Z,141076.59
2023-04-03T16:13:20.966Z,141172.59
2023-04-03T16:18:24.547Z,141092.63
2023-04-03T16:23:29.396Z,141039.69
2023-04-03T16:28:32.810Z,141013.84
2023-04-03T16:33:36.470Z,141017.53
2023-04-03T16:38:41.391Z,140971.97
2023-04-03T16:43:44.957Z,140971.97
2023-04-03T16:48:48.755Z,140999.06
2023-04-03T16:53:55.978Z,140915.41
2023-04-03T16:58:59.566Z,140980.63
2023-04-03T17:04:05.259Z,140933.88
2023-04-03T17:09:10.861Z,140885.88
2023-04-03T17:14:14.196Z,140868.69
2023-04-03T17:19:18.027Z,140869.91
2023-04-03T17:24:22.807Z,140874.84
2023-04-03T17:29:26.251Z,140855.13
2023-04-03T17:34:29.560Z,140852.69
2023-04-03T17:39:34.427Z,140834.28
2023-04-03T17:44:37.853Z,140801.03
2023-04-03T17:49:41.350Z,140760.53
2023-04-03T17:54:46.368Z,140749.44
2023-04-03T17:59:49.764Z,140758.06
2023-04-03T18:04:54.092Z,140735.94
2023-04-03T18:10:04.972Z,140678.19
2023-04-03T18:15:08.805Z,140690.47
2023-04-03T18:20:15.172Z,140664.66
2023-04-03T18:25:20.904Z,140643.78
2023-04-03T18:30:26.480Z,140630.25
2023-04-03T18:35:32.903Z,140604.44
2023-04-03T18:40:38.136Z,140627.81
2023-04-03T18:45:44.581Z,140602.00
2023-04-03T18:50:48.710Z,140595.88
2023-04-03T18:55:54.629Z,140597.09
2023-04-03T19:00:59.283Z,140598.31
2023-04-03T19:06:03.800Z,140600.78
2023-04-03T19:11:08.713Z,140626.56
2023-04-03T19:16:15.036Z,140592.19
2023-04-03T19:21:18.871Z,140574.97
2023-04-03T19:26:23.836Z,140576.19
2023-04-03T19:31:27.236Z,140566.38
2023-04-03T19:36:30.620Z,140543.03
2023-04-03T19:41:37.030Z,140562.72
2023-04-03T19:46:40.697Z,140528.31
2023-04-03T19:51:55.777Z,140525.84
2023-04-03T19:57:00.851Z,140491.47
2023-04-03T20:02:04.812Z,140497.59
2023-04-03T20:07:08.401Z,140464.50
2023-04-03T20:12:13.430Z,140439.94
2023-04-03T20:17:16.944Z,140406.78
2023-04-03T20:22:20.561Z,140371.22
2023-04-03T20:27:25.948Z,140363.88
2023-04-03T20:32:33.650Z,140347.88
2023-04-03T20:37:38.587Z,140276.75
2023-04-03T20:42:43.492Z,140224.00
2023-04-03T20:47:46.983Z,140206.81
2023-04-03T20:52:50.372Z,140224.00
2023-04-03T20:58:00.678Z,140205.56
2023-04-03T21:03:04.213Z,140177.41
2023-04-03T21:08:26.473Z,140194.59
2023-04-03T21:13:48.619Z,140135.75
2023-04-03T21:19:03.920Z,140094.03
2023-04-03T21:24:09.964Z,140081.81
2023-04-03T21:29:13.901Z,140037.66
2023-04-03T21:34:19.790Z,140027.88
2023-04-03T21:39:23.182Z,140021.69
2023-04-03T21:44:28.912Z,140007.03
